sensor_id;sensor_type;location;lat;lon;timestamp;pressure;altitude;pressure_sealevel;temperature;humidity
52591;BME280;38483;42.620;25.394;2023-04-16T00:01:12;96579.97;;;12.67;66.32
52591;BME280;38483;42.620;25.394;2023-04-16T00:03:39;96584.28;;;12.95;65.76
52591;BME280;38483;42.620;25.394;2023-04-16T00:06:06;96578.06;;;13.12;64.78
52591;BME280;38483;42.620;25.394;2023-04-16T00:08:33;96585.69;;;13.15;64.37
52591;BME280;38483;42.620;25.394;2023-04-16T00:11:01;96594.84;;;13.20;64.90
52591;BME280;38483;42.620;25.394;2023-04-16T00:13:28;96583.97;;;13.28;65.57
52591;BME280;38483;42.620;25.394;2023-04-16T00:15:55;96582.47;;;13.24;65.18
52591;BME280;38483;42.620;25.394;2023-04-16T00:18:22;96581.69;;;13.09;66.23
52591;BME280;38483;42.620;25.394;2023-04-16T00:20:50;96576.94;;;13.16;66.13
52591;BME280;38483;42.620;25.394;2023-04-16T00:23:17;96585.66;;;13.00;66.97
52591;BME280;38483;42.620;25.394;2023-04-16T00:25:44;96585.78;;;12.85;67.04
52591;BME280;38483;42.620;25.394;2023-04-16T00:28:11;96586.56;;;12.59;67.40
52591;BME280;38483;42.620;25.394;2023-04-16T00:30:39;96590.25;;;12.83;67.50
52591;BME280;38483;42.620;25.394;2023-04-16T00:33:06;96581.06;;;12.77;67.45
52591;BME280;38483;42.620;25.394;2023-04-16T00:35:33;96582.06;;;12.89;67.58
52591;BME280;38483;42.620;25.394;2023-04-16T00:38:01;96581.72;;;12.81;67.18
52591;BME280;38483;42.620;25.394;2023-04-16T00:40:28;96579.13;;;12.67;67.92
52591;BME280;38483;42.620;25.394;2023-04-16T00:42:55;96563.53;;;12.39;68.76
52591;BME280;38483;42.620;25.394;2023-04-16T00:45:22;96564.00;;;12.31;68.93
52591;BME280;38483;42.620;25.394;2023-04-16T00:47:49;96566.59;;;12.17;69.08
52591;BME280;38483;42.620;25.394;2023-04-16T00:50:17;96567.81;;;12.25;69.66
52591;BME280;38483;42.620;25.394;2023-04-16T00:52:46;96557.53;;;12.38;69.27
52591;BME280;38483;42.620;25.394;2023-04-16T00:55:14;96571.31;;;12.39;69.46
52591;BME280;38483;42.620;25.394;2023-04-16T00:57:44;96563.72;;;12.50;69.24
52591;BME280;38483;42.620;25.394;2023-04-16T01:00:12;96570.78;;;12.62;69.59
52591;BME280;38483;42.620;25.394;2023-04-16T01:02:39;96570.69;;;12.77;68.84
52591;BME280;38483;42.620;25.394;2023-04-16T01:05:07;96574.47;;;12.72;68.80
52591;BME280;38483;42.620;25.394;2023-04-16T01:07:34;96564.09;;;12.72;68.73
52591;BME280;38483;42.620;25.394;2023-04-16T01:10:02;96576.78;;;12.76;68.50
52591;BME280;38483;42.620;25.394;2023-04-16T01:12:31;96576.50;;;12.81;68.13
52591;BME280;38483;42.620;25.394;2023-04-16T01:14:58;96578.84;;;12.85;67.86
52591;BME280;38483;42.620;25.394;2023-04-16T01:17:25;96576.59;;;12.65;68.27
52591;BME280;38483;42.620;25.394;2023-04-16T01:19:52;96578.94;;;12.70;68.48
52591;BME280;38483;42.620;25.394;2023-04-16T01:22:19;96578.31;;;12.52;69.24
52591;BME280;38483;42.620;25.394;2023-04-16T01:24:47;96575.34;;;12.44;69.08
52591;BME280;38483;42.620;25.394;2023-04-16T01:27:14;96575.03;;;12.35;69.18
52591;BME280;38483;42.620;25.394;2023-04-16T01:29:41;96570.41;;;12.40;69.30
52591;BME280;38483;42.620;25.394;2023-04-16T01:32:09;96578.31;;;12.38;69.30
52591;BME280;38483;42.620;25.394;2023-04-16T01:34:39;96576.16;;;12.45;69.04
52591;BME280;38483;42.620;25.394;2023-04-16T01:37:09;96565.88;;;12.29;69.41
52591;BME280;38483;42.620;25.394;2023-04-16T01:39:36;96578.47;;;12.21;69.84
52591;BME280;38483;42.620;25.394;2023-04-16T01:42:03;96563.28;;;12.29;69.72
52591;BME280;38483;42.620;25.394;2023-04-16T01:44:51;96573.28;;;12.35;69.21
52591;BME280;38483;42.620;25.394;2023-04-16T01:47:52;96569.56;;;12.11;70.38
52591;BME280;38483;42.620;25.394;2023-04-16T01:50:20;96570.28;;;11.99;70.24
52591;BME280;38483;42.620;25.394;2023-04-16T01:52:47;96561.41;;;12.03;70.12
52591;BME280;38483;42.620;25.394;2023-04-16T01:55:14;96571.53;;;12.21;70.23
52591;BME280;38483;42.620;25.394;2023-04-16T01:57:41;96531.28;;;12.00;70.01
52591;BME280;38483;42.620;25.394;2023-04-16T02:00:10;96563.47;;;12.26;69.26
52591;BME280;38483;42.620;25.394;2023-04-16T02:02:46;96567.56;;;12.30;68.58
52591;BME280;38483;42.620;25.394;2023-04-16T02:05:23;96549.44;;;12.14;69.79
52591;BME280;38483;42.620;25.394;2023-04-16T02:07:50;96561.69;;;12.12;69.41
52591;BME280;38483;42.620;25.394;2023-04-16T02:10:17;96568.66;;;12.26;69.10
52591;BME280;38483;42.620;25.394;2023-04-16T02:12:46;96565.84;;;12.15;69.88
52591;BME280;38483;42.620;25.394;2023-04-16T02:15:14;96571.22;;;12.12;70.33
52591;BME280;38483;42.620;25.394;2023-04-16T02:17:42;96568.69;;;11.82;71.35
52591;BME280;38483;42.620;25.394;2023-04-16T02:20:09;96565.84;;;11.71;71.17
52591;BME280;38483;42.620;25.394;2023-04-16T02:22:47;96564.00;;;11.73;70.50
52591;BME280;38483;42.620;25.394;2023-04-16T02:25:17;96563.66;;;11.79;71.04
52591;BME280;38483;42.620;25.394;2023-04-16T02:27:46;96562.19;;;11.89;70.14
52591;BME280;38483;42.620;25.394;2023-04-16T02:30:23;96557.88;;;12.04;70.34
52591;BME280;38483;42.620;25.394;2023-04-16T02:32:52;96551.75;;;12.05;70.03
52591;BME280;38483;42.620;25.394;2023-04-16T02:35:19;96538.06;;;11.73;70.70
52591;BME280;38483;42.620;25.394;2023-04-16T02:37:47;96547.53;;;11.59;72.11
52591;BME280;38483;42.620;25.394;2023-04-16T02:40:14;96547.09;;;11.36;73.61
52591;BME280;38483;42.620;25.394;2023-04-16T02:42:41;96540.22;;;11.35;73.77
52591;BME280;38483;42.620;25.394;2023-04-16T02:45:08;96550.69;;;11.50;73.27
52591;BME280;38483;42.620;25.394;2023-04-16T02:47:35;96554.16;;;11.64;72.72
52591;BME280;38483;42.620;25.394;2023-04-16T02:50:03;96549.56;;;11.83;72.61
52591;BME280;38483;42.620;25.394;2023-04-16T02:52:30;96542.06;;;11.79;72.15
52591;BME280;38483;42.620;25.394;2023-04-16T02:54:58;96560.81;;;11.98;71.78
52591;BME280;38483;42.620;25.394;2023-04-16T02:57:26;96563.78;;;12.06;71.67
52591;BME280;38483;42.620;25.394;2023-04-16T02:59:53;96558.63;;;12.20;70.46
52591;BME280;38483;42.620;25.394;2023-04-16T03:02:20;96568.72;;;12.24;69.90
52591;BME280;38483;42.620;25.394;2023-04-16T03:04:47;96565.38;;;12.22;69.56
52591;BME280;38483;42.620;25.394;2023-04-16T03:07:14;96568.84;;;12.37;69.09
52591;BME280;38483;42.620;25.394;2023-04-16T03:09:41;96579.03;;;12.26;69.75
52591;BME280;38483;42.620;25.394;2023-04-16T03:12:08;96581.91;;;12.21;69.61
52591;BME280;38483;42.620;25.394;2023-04-16T03:14:35;96580.44;;;12.17;69.88
52591;BME280;38483;42.620;25.394;2023-04-16T03:17:02;96573.66;;;12.15;70.26
52591;BME280;38483;42.620;25.394;2023-04-16T03:19:29;96573.28;;;12.07;70.20
52591;BME280;38483;42.620;25.394;2023-04-16T03:21:56;96566.97;;;12.11;70.26
52591;BME280;38483;42.620;25.394;2023-04-16T03:24:23;96568.72;;;11.96;70.49
52591;BME280;38483;42.620;25.394;2023-04-16T03:26:52;96572.88;;;11.85;71.90
52591;BME280;38483;42.620;25.394;2023-04-16T03:29:21;96579.41;;;11.61;73.11
52591;BME280;38483;42.620;25.394;2023-04-16T03:31:48;96577.50;;;11.48;73.44
52591;BME280;38483;42.620;25.394;2023-04-16T03:34:15;96577.41;;;11.50;73.62
52591;BME280;38483;42.620;25.394;2023-04-16T03:36:42;96563.69;;;11.64;72.20
52591;BME280;38483;42.620;25.394;2023-04-16T03:39:09;96573.50;;;11.88;71.62
52591;BME280;38483;42.620;25.394;2023-04-16T03:41:37;96570.06;;;11.88;71.87
52591;BME280;38483;42.620;25.394;2023-04-16T03:44:04;96576.72;;;11.78;72.20
52591;BME280;38483;42.620;25.394;2023-04-16T03:46:32;96580.06;;;11.80;72.69
52591;BME280;38483;42.620;25.394;2023-04-16T03:48:59;96573.13;;;11.80;72.72
52591;BME280;38483;42.620;25.394;2023-04-16T03:51:27;96576.38;;;11.98;72.26
52591;BME280;38483;42.620;25.394;2023-04-16T03:53:55;96579.19;;;11.95;72.70
52591;BME280;38483;42.620;25.394;2023-04-16T03:56:23;96580.44;;;11.88;73.01
52591;BME280;38483;42.620;25.394;2023-04-16T03:58:51;96574.03;;;11.79;72.87
52591;BME280;38483;42.620;25.394;2023-04-16T04:01:18;96582.53;;;11.52;74.01
52591;BME280;38483;42.620;25.394;2023-04-16T04:03:46;96585.56;;;11.44;74.05
52591;BME280;38483;42.620;25.394;2023-04-16T04:06:14;96597.44;;;11.32;74.05
52591;BME280;38483;42.620;25.394;2023-04-16T04:08:41;96596.59;;;11.32;73.94
52591;BME280;38483;42.620;25.394;2023-04-16T04:11:09;96598.28;;;11.33;74.13
52591;BME280;38483;42.620;25.394;2023-04-16T04:13:38;96589.59;;;11.34;73.76
52591;BME280;38483;42.620;25.394;2023-04-16T04:16:05;96593.88;;;11.35;73.64
52591;BME280;38483;42.620;25.394;2023-04-16T04:18:32;96592.53;;;11.12;74.71
52591;BME280;38483;42.620;25.394;2023-04-16T04:21:04;96592.09;;;11.20;73.71
52591;BME280;38483;42.620;25.394;2023-04-16T04:23:33;96606.72;;;11.36;72.83
52591;BME280;38483;42.620;25.394;2023-04-16T04:26:00;96597.34;;;11.50;72.18
52591;BME280;38483;42.620;25.394;2023-04-16T04:28:30;96604.53;;;11.60;72.19
52591;BME280;38483;42.620;25.394;2023-04-16T04:30:58;96602.22;;;11.85;71.13
52591;BME280;38483;42.620;25.394;2023-04-16T04:33:27;96613.44;;;11.86;70.70
52591;BME280;38483;42.620;25.394;2023-04-16T04:35:54;96616.72;;;11.74;71.70
52591;BME280;38483;42.620;25.394;2023-04-16T04:38:22;96618.81;;;11.83;71.28
52591;BME280;38483;42.620;25.394;2023-04-16T04:40:52;96615.16;;;12.01;70.88
52591;BME280;38483;42.620;25.394;2023-04-16T04:43:21;96601.91;;;12.05;70.11
52591;BME280;38483;42.620;25.394;2023-04-16T04:45:49;96609.88;;;12.16;70.49
52591;BME280;38483;42.620;25.394;2023-04-16T04:48:17;96620.75;;;12.23;69.91
52591;BME280;38483;42.620;25.394;2023-04-16T04:50:45;96616.88;;;12.30;69.81
52591;BME280;38483;42.620;25.394;2023-04-16T04:53:12;96607.38;;;12.15;69.88
52591;BME280;38483;42.620;25.394;2023-04-16T04:55:41;96602.00;;;12.18;70.88
52591;BME280;38483;42.620;25.394;2023-04-16T04:58:08;96613.72;;;12.25;70.15
52591;BME280;38483;42.620;25.394;2023-04-16T05:00:36;96597.41;;;11.93;71.39
52591;BME280;38483;42.620;25.394;2023-04-16T05:03:05;96615.19;;;11.85;72.20
52591;BME280;38483;42.620;25.394;2023-04-16T05:05:32;96613.28;;;11.89;71.88
52591;BME280;38483;42.620;25.394;2023-04-16T05:07:59;96617.47;;;11.76;72.00
52591;BME280;38483;42.620;25.394;2023-04-16T05:10:26;96612.66;;;11.70;72.57
52591;BME280;38483;42.620;25.394;2023-04-16T05:12:53;96619.34;;;11.74;72.88
52591;BME280;38483;42.620;25.394;2023-04-16T05:15:20;96617.09;;;11.68;72.86
52591;BME280;38483;42.620;25.394;2023-04-16T05:17:47;96618.88;;;12.11;71.94
52591;BME280;38483;42.620;25.394;2023-04-16T05:20:14;96613.94;;;12.06;72.72
52591;BME280;38483;42.620;25.394;2023-04-16T05:22:41;96614.78;;;12.07;73.06
52591;BME280;38483;42.620;25.394;2023-04-16T05:25:08;96612.47;;;12.16;72.44
52591;BME280;38483;42.620;25.394;2023-04-16T05:27:36;96614.09;;;12.33;72.22
52591;BME280;38483;42.620;25.394;2023-04-16T05:30:03;96611.69;;;12.58;72.14
52591;BME280;38483;42.620;25.394;2023-04-16T05:32:31;96611.31;;;12.64;71.80
52591;BME280;38483;42.620;25.394;2023-04-16T05:34:58;96597.47;;;12.78;71.12
52591;BME280;38483;42.620;25.394;2023-04-16T05:37:25;96615.41;;;13.11;70.95
52591;BME280;38483;42.620;25.394;2023-04-16T05:39:52;96619.84;;;13.08;70.95
52591;BME280;38483;42.620;25.394;2023-04-16T05:42:19;96611.13;;;13.10;71.06
52591;BME280;38483;42.620;25.394;2023-04-16T05:44:46;96608.66;;;13.35;70.04
52591;BME280;38483;42.620;25.394;2023-04-16T05:47:14;96610.19;;;13.51;70.05
52591;BME280;38483;42.620;25.394;2023-04-16T05:49:41;96610.47;;;13.47;72.18
52591;BME280;38483;42.620;25.394;2023-04-16T05:52:08;96595.03;;;13.44;72.41
52591;BME280;38483;42.620;25.394;2023-04-16T05:54:35;96600.81;;;13.49;73.27
52591;BME280;38483;42.620;25.394;2023-04-16T05:57:02;96605.38;;;13.72;72.91
52591;BME280;38483;42.620;25.394;2023-04-16T05:59:29;96607.19;;;13.57;73.74
52591;BME280;38483;42.620;25.394;2023-04-16T06:01:56;96603.00;;;13.55;72.88
52591;BME280;38483;42.620;25.394;2023-04-16T06:04:23;96613.56;;;13.66;73.37
52591;BME280;38483;42.620;25.394;2023-04-16T06:06:50;96599.59;;;13.67;73.55
52591;BME280;38483;42.620;25.394;2023-04-16T06:09:17;96605.16;;;13.75;73.36
52591;BME280;38483;42.620;25.394;2023-04-16T06:11:44;96604.06;;;13.65;73.27
52591;BME280;38483;42.620;25.394;2023-04-16T06:14:12;96592.75;;;13.66;73.05
52591;BME280;38483;42.620;25.394;2023-04-16T06:16:39;96615.47;;;13.89;73.54
52591;BME280;38483;42.620;25.394;2023-04-16T06:19:06;96611.38;;;13.99;72.74
52591;BME280;38483;42.620;25.394;2023-04-16T06:21:33;96614.69;;;14.01;73.14
52591;BME280;38483;42.620;25.394;2023-04-16T06:24:00;96618.25;;;14.13;73.06
52591;BME280;38483;42.620;25.394;2023-04-16T06:26:27;96575.28;;;13.93;73.54
52591;BME280;38483;42.620;25.394;2023-04-16T06:28:55;96609.81;;;14.09;73.97
52591;BME280;38483;42.620;25.394;2023-04-16T06:31:23;96599.81;;;14.03;74.59
52591;BME280;38483;42.620;25.394;2023-04-16T06:33:50;96600.84;;;14.01;74.79
52591;BME280;38483;42.620;25.394;2023-04-16T06:36:17;96612.59;;;14.06;74.81
52591;BME280;38483;42.620;25.394;2023-04-16T06:38:44;96578.91;;;13.65;75.50
52591;BME280;38483;42.620;25.394;2023-04-16T06:41:13;96607.50;;;14.05;75.04
52591;BME280;38483;42.620;25.394;2023-04-16T06:43:40;96607.88;;;13.86;75.42
52591;BME280;38483;42.620;25.394;2023-04-16T06:46:27;96612.19;;;14.12;75.54
52591;BME280;38483;42.620;25.394;2023-04-16T06:49:14;96599.66;;;14.31;74.69
52591;BME280;38483;42.620;25.394;2023-04-16T06:51:41;96609.78;;;14.48;73.59
52591;BME280;38483;42.620;25.394;2023-04-16T06:54:08;96601.75;;;14.51;73.79
52591;BME280;38483;42.620;25.394;2023-04-16T06:56:36;96603.19;;;14.30;73.49
52591;BME280;38483;42.620;25.394;2023-04-16T06:59:03;96591.13;;;13.90;74.19
52591;BME280;38483;42.620;25.394;2023-04-16T07:01:30;96613.28;;;13.83;76.72
52591;BME280;38483;42.620;25.394;2023-04-16T07:03:57;96603.44;;;14.01;75.71
52591;BME280;38483;42.620;25.394;2023-04-16T07:06:25;96596.78;;;13.97;75.04
52591;BME280;38483;42.620;25.394;2023-04-16T07:08:52;96605.78;;;14.18;74.82
52591;BME280;38483;42.620;25.394;2023-04-16T07:11:20;96609.59;;;14.12;75.13
52591;BME280;38483;42.620;25.394;2023-04-16T07:13:48;96607.75;;;14.27;74.42
52591;BME280;38483;42.620;25.394;2023-04-16T07:16:16;96610.19;;;14.42;74.54
52591;BME280;38483;42.620;25.394;2023-04-16T07:18:44;96613.19;;;14.74;74.21
52591;BME280;38483;42.620;25.394;2023-04-16T07:21:11;96602.16;;;14.58;74.97
52591;BME280;38483;42.620;25.394;2023-04-16T07:23:38;96608.09;;;14.47;76.22
52591;BME280;38483;42.620;25.394;2023-04-16T07:26:05;96610.50;;;14.50;76.49
52591;BME280;38483;42.620;25.394;2023-04-16T07:28:32;96618.31;;;14.50;77.04
52591;BME280;38483;42.620;25.394;2023-04-16T07:30:59;96620.63;;;14.42;77.30
52591;BME280;38483;42.620;25.394;2023-04-16T07:33:26;96604.75;;;14.33;77.58
52591;BME280;38483;42.620;25.394;2023-04-16T07:35:54;96606.22;;;14.62;77.50
52591;BME280;38483;42.620;25.394;2023-04-16T07:38:21;96604.03;;;14.68;77.31
52591;BME280;38483;42.620;25.394;2023-04-16T07:40:54;96595.97;;;14.72;77.37
52591;BME280;38483;42.620;25.394;2023-04-16T07:43:25;96613.31;;;14.73;77.57
52591;BME280;38483;42.620;25.394;2023-04-16T07:45:52;96606.53;;;14.70;78.27
52591;BME280;38483;42.620;25.394;2023-04-16T07:48:19;96615.34;;;15.05;77.04
52591;BME280;38483;42.620;25.394;2023-04-16T07:50:46;96618.06;;;15.04;76.96
52591;BME280;38483;42.620;25.394;2023-04-16T07:53:13;96608.22;;;15.20;76.49
52591;BME280;38483;42.620;25.394;2023-04-16T07:55:40;96618.91;;;15.04;76.95
52591;BME280;38483;42.620;25.394;2023-04-16T07:58:07;96616.94;;;14.83;77.66
52591;BME280;38483;42.620;25.394;2023-04-16T08:00:35;96595.47;;;14.66;78.63
52591;BME280;38483;42.620;25.394;2023-04-16T08:03:02;96604.56;;;14.61;79.30
52591;BME280;38483;42.620;25.394;2023-04-16T08:05:30;96602.56;;;14.64;79.67
52591;BME280;38483;42.620;25.394;2023-04-16T08:07:57;96597.25;;;14.53;80.71
52591;BME280;38483;42.620;25.394;2023-04-16T08:10:24;96581.41;;;14.31;80.89
52591;BME280;38483;42.620;25.394;2023-04-16T08:12:51;96609.38;;;14.54;80.99
52591;BME280;38483;42.620;25.394;2023-04-16T08:15:18;96611.13;;;14.54;81.71
52591;BME280;38483;42.620;25.394;2023-04-16T08:17:45;96610.41;;;14.64;81.97
52591;BME280;38483;42.620;25.394;2023-04-16T08:20:12;96601.84;;;14.75;81.50
52591;BME280;38483;42.620;25.394;2023-04-16T08:22:45;96602.75;;;14.74;82.07
52591;BME280;38483;42.620;25.394;2023-04-16T08:25:13;96598.28;;;14.51;83.53
52591;BME280;38483;42.620;25.394;2023-04-16T08:27:40;96613.91;;;14.26;84.33
52591;BME280;38483;42.620;25.394;2023-04-16T08:30:07;96615.19;;;14.45;84.10
52591;BME280;38483;42.620;25.394;2023-04-16T08:32:34;96609.78;;;14.48;84.49
52591;BME280;38483;42.620;25.394;2023-04-16T08:35:01;96601.41;;;14.68;84.29
52591;BME280;38483;42.620;25.394;2023-04-16T08:37:29;96596.91;;;14.83;83.55
52591;BME280;38483;42.620;25.394;2023-04-16T08:39:57;96604.28;;;15.02;83.12
52591;BME280;38483;42.620;25.394;2023-04-16T08:42:38;96596.31;;;15.16;82.49
52591;BME280;38483;42.620;25.394;2023-04-16T08:45:16;96602.19;;;15.07;81.53
52591;BME280;38483;42.620;25.394;2023-04-16T08:47:48;96591.53;;;15.10;80.62
52591;BME280;38483;42.620;25.394;2023-04-16T08:50:23;96607.66;;;15.27;80.05
52591;BME280;38483;42.620;25.394;2023-04-16T08:52:52;96602.97;;;15.32;79.80
52591;BME280;38483;42.620;25.394;2023-04-16T08:55:25;96602.34;;;15.29;80.31
52591;BME280;38483;42.620;25.394;2023-04-16T08:57:57;96610.91;;;15.31;80.30
52591;BME280;38483;42.620;25.394;2023-04-16T09:00:25;96606.94;;;15.25;80.50
52591;BME280;38483;42.620;25.394;2023-04-16T09:02:52;96602.00;;;15.70;79.55
52591;BME280;38483;42.620;25.394;2023-04-16T09:05:21;96589.53;;;16.08;77.65
52591;BME280;38483;42.620;25.394;2023-04-16T09:07:51;96595.88;;;16.16;75.02
52591;BME280;38483;42.620;25.394;2023-04-16T09:10:20;96594.31;;;16.03;75.35
52591;BME280;38483;42.620;25.394;2023-04-16T09:12:48;96597.25;;;15.75;74.97
52591;BME280;38483;42.620;25.394;2023-04-16T09:15:15;96590.66;;;15.82;75.03
52591;BME280;38483;42.620;25.394;2023-04-16T09:17:42;96593.91;;;15.62;75.63
52591;BME280;38483;42.620;25.394;2023-04-16T09:20:09;96587.69;;;15.52;75.84
52591;BME280;38483;42.620;25.394;2023-04-16T09:22:37;96590.97;;;15.30;76.65
52591;BME280;38483;42.620;25.394;2023-04-16T09:25:06;96602.84;;;14.98;77.95
52591;BME280;38483;42.620;25.394;2023-04-16T09:27:34;96592.41;;;14.98;78.62
52591;BME280;38483;42.620;25.394;2023-04-16T09:30:25;96577.69;;;15.33;77.07
52591;BME280;38483;42.620;25.394;2023-04-16T09:33:18;96581.50;;;15.53;75.66
52591;BME280;38483;42.620;25.394;2023-04-16T09:35:51;96562.78;;;15.82;74.66
52591;BME280;38483;42.620;25.394;2023-04-16T09:38:19;96576.09;;;15.90;73.81
52591;BME280;38483;42.620;25.394;2023-04-16T09:40:46;96574.00;;;16.06;72.93
52591;BME280;38483;42.620;25.394;2023-04-16T09:43:15;96572.22;;;16.07;72.99
52591;BME280;38483;42.620;25.394;2023-04-16T09:45:52;96565.59;;;16.25;72.41
52591;BME280;38483;42.620;25.394;2023-04-16T09:48:27;96566.16;;;16.06;72.47
52591;BME280;38483;42.620;25.394;2023-04-16T09:50:56;96559.88;;;16.55;71.36
52591;BME280;38483;42.620;25.394;2023-04-16T09:53:28;96560.91;;;16.74;69.73
52591;BME280;38483;42.620;25.394;2023-04-16T09:55:59;96560.34;;;16.71;70.05
52591;BME280;38483;42.620;25.394;2023-04-16T09:58:27;96563.78;;;16.82;70.40
52591;BME280;38483;42.620;25.394;2023-04-16T10:01:16;96562.84;;;17.37;68.25
52591;BME280;38483;42.620;25.394;2023-04-16T10:03:48;96557.84;;;17.45;67.54
52591;BME280;38483;42.620;25.394;2023-04-16T10:06:19;96545.97;;;17.30;67.49
52591;BME280;38483;42.620;25.394;2023-04-16T10:08:48;96549.22;;;17.23;67.63
52591;BME280;38483;42.620;25.394;2023-04-16T10:11:16;96538.00;;;17.32;68.24
52591;BME280;38483;42.620;25.394;2023-04-16T10:13:44;96546.81;;;17.73;67.25
52591;BME280;38483;42.620;25.394;2023-04-16T10:16:12;96552.63;;;17.34;67.80
52591;BME280;38483;42.620;25.394;2023-04-16T10:18:40;96549.31;;;17.32;68.53
52591;BME280;38483;42.620;25.394;2023-04-16T10:21:08;96546.81;;;17.31;67.82
52591;BME280;38483;42.620;25.394;2023-04-16T10:23:38;96552.69;;;17.01;68.90
52591;BME280;38483;42.620;25.394;2023-04-16T10:26:07;96540.09;;;16.84;69.60
52591;BME280;38483;42.620;25.394;2023-04-16T10:28:34;96545.34;;;16.95;69.91
52591;BME280;38483;42.620;25.394;2023-04-16T10:31:04;96537.69;;;17.14;67.36
52591;BME280;38483;42.620;25.394;2023-04-16T10:33:38;96532.31;;;17.27;67.00
52591;BME280;38483;42.620;25.394;2023-04-16T10:38:38;96535.22;;;17.44;66.73
52591;BME280;38483;42.620;25.394;2023-04-16T10:41:06;96538.34;;;17.27;66.17
52591;BME280;38483;42.620;25.394;2023-04-16T10:43:40;96542.19;;;17.23;64.47
52591;BME280;38483;42.620;25.394;2023-04-16T10:46:23;96540.22;;;17.47;63.33
52591;BME280;38483;42.620;25.394;2023-04-16T10:48:54;96543.31;;;17.52;60.81
52591;BME280;38483;42.620;25.394;2023-04-16T10:51:34;96548.47;;;17.74;59.93
52591;BME280;38483;42.620;25.394;2023-04-16T10:56:35;96555.47;;;17.53;60.46
52591;BME280;38483;42.620;25.394;2023-04-16T10:59:04;96557.72;;;17.36;59.52
52591;BME280;38483;42.620;25.394;2023-04-16T11:01:35;96556.28;;;17.54;59.48
52591;BME280;38483;42.620;25.394;2023-04-16T11:15:01;96544.03;;;17.54;55.00
52591;BME280;38483;42.620;25.394;2023-04-16T11:20:17;96540.88;;;17.92;53.41
52591;BME280;38483;42.620;25.394;2023-04-16T11:22:48;96540.72;;;18.05;53.58
52591;BME280;38483;42.620;25.394;2023-04-16T11:25:19;96523.13;;;18.16;53.32
52591;BME280;38483;42.620;25.394;2023-04-16T11:27:48;96520.47;;;18.37;52.69
52591;BME280;38483;42.620;25.394;2023-04-16T11:30:16;96531.47;;;18.51;54.35
52591;BME280;38483;42.620;25.394;2023-04-16T11:32:43;96520.91;;;18.62;55.32
52591;BME280;38483;42.620;25.394;2023-04-16T11:35:15;96524.06;;;18.36;57.22
52591;BME280;38483;42.620;25.394;2023-04-16T11:37:44;96521.72;;;18.42;57.17
52591;BME280;38483;42.620;25.394;2023-04-16T11:40:12;96518.53;;;18.39;56.79
52591;BME280;38483;42.620;25.394;2023-04-16T11:42:40;96504.31;;;18.52;56.67
52591;BME280;38483;42.620;25.394;2023-04-16T11:45:08;96497.94;;;18.55;56.20
52591;BME280;38483;42.620;25.394;2023-04-16T11:47:50;96492.16;;;18.61;55.96
52591;BME280;38483;42.620;25.394;2023-04-16T11:50:26;96497.66;;;18.48;56.09
52591;BME280;38483;42.620;25.394;2023-04-16T11:52:56;96496.69;;;18.29;55.50
52591;BME280;38483;42.620;25.394;2023-04-16T11:55:23;96489.53;;;18.61;54.73
52591;BME280;38483;42.620;25.394;2023-04-16T11:57:51;96485.16;;;18.41;54.06
52591;BME280;38483;42.620;25.394;2023-04-16T12:00:18;96499.47;;;18.27;53.96
52591;BME280;38483;42.620;25.394;2023-04-16T12:02:52;96482.75;;;18.28;53.01
52591;BME280;38483;42.620;25.394;2023-04-16T12:05:37;96485.59;;;18.16;52.41
52591;BME280;38483;42.620;25.394;2023-04-16T12:08:08;96482.66;;;18.30;53.98
52591;BME280;38483;42.620;25.394;2023-04-16T12:10:57;96483.97;;;18.24;54.15
52591;BME280;38483;42.620;25.394;2023-04-16T12:13:25;96486.13;;;18.40;54.09
52591;BME280;38483;42.620;25.394;2023-04-16T12:15:53;96475.72;;;18.29;54.50
52591;BME280;38483;42.620;25.394;2023-04-16T12:18:23;96484.34;;;18.20;55.80
52591;BME280;38483;42.620;25.394;2023-04-16T12:20:53;96481.44;;;18.13;57.80
52591;BME280;38483;42.620;25.394;2023-04-16T12:23:28;96474.09;;;18.58;57.43
52591;BME280;38483;42.620;25.394;2023-04-16T12:25:56;96470.03;;;18.24;56.08
52591;BME280;38483;42.620;25.394;2023-04-16T12:28:33;96468.88;;;18.07;56.65
52591;BME280;38483;42.620;25.394;2023-04-16T12:31:01;96470.63;;;18.27;55.45
52591;BME280;38483;42.620;25.394;2023-04-16T12:33:29;96462.53;;;18.40;55.19
52591;BME280;38483;42.620;25.394;2023-04-16T12:35:56;96438.88;;;18.30;54.89
52591;BME280;38483;42.620;25.394;2023-04-16T12:38:24;96439.88;;;18.39;54.04
52591;BME280;38483;42.620;25.394;2023-04-16T12:40:52;96445.94;;;18.69;54.18
52591;BME280;38483;42.620;25.394;2023-04-16T12:43:23;96446.53;;;18.43;56.66
52591;BME280;38483;42.620;25.394;2023-04-16T12:45:50;96445.84;;;18.11;57.14
52591;BME280;38483;42.620;25.394;2023-04-16T12:48:17;96436.25;;;17.70;56.78
52591;BME280;38483;42.620;25.394;2023-04-16T12:50:44;96429.59;;;18.17;56.43
52591;BME280;38483;42.620;25.394;2023-04-16T12:53:11;96428.25;;;18.52;55.78
52591;BME280;38483;42.620;25.394;2023-04-16T12:55:39;96432.03;;;18.69;54.92
52591;BME280;38483;42.620;25.394;2023-04-16T12:58:07;96425.56;;;18.73;54.92
52591;BME280;38483;42.620;25.394;2023-04-16T13:00:38;96408.28;;;18.80;54.69
52591;BME280;38483;42.620;25.394;2023-04-16T13:03:06;96410.47;;;18.65;54.94
52591;BME280;38483;42.620;25.394;2023-04-16T13:05:33;96407.69;;;18.67;54.80
52591;BME280;38483;42.620;25.394;2023-04-16T13:08:01;96406.38;;;18.92;54.20
52591;BME280;38483;42.620;25.394;2023-04-16T13:10:28;96392.13;;;18.94;53.42
52591;BME280;38483;42.620;25.394;2023-04-16T13:12:55;96410.94;;;18.99;54.26
52591;BME280;38483;42.620;25.394;2023-04-16T13:15:23;96407.03;;;18.35;60.68
52591;BME280;38483;42.620;25.394;2023-04-16T13:17:50;96404.84;;;17.79;64.01